sensor_id;sensor_type;location;lat;lon;timestamp;pressure;altitude;pressure_sealevel;temperature;humidity
74334;BME280;62753;40.394;-80.022;2023-07-20T00:01:43;97443.02;;;33.95;24.64
74334;BME280;62753;40.394;-80.022;2023-07-20T00:04:08;97443.27;;;34.85;23.96
74334;BME280;62753;40.394;-80.022;2023-07-20T00:06:33;97438.32;;;34.44;23.69
74334;BME280;62753;40.394;-80.022;2023-07-20T00:08:59;97437.03;;;34.70;24.26
74334;BME280;62753;40.394;-80.022;2023-07-20T00:11:26;97431.67;;;34.45;24.05
74334;BME280;62753;40.394;-80.022;2023-07-20T00:13:50;97437.02;;;34.53;24.39
74334;BME280;62753;40.394;-80.022;2023-07-20T00:16:15;97436.56;;;34.44;24.36
74334;BME280;62753;40.394;-80.022;2023-07-20T00:18:40;97431.28;;;34.72;23.98
74334;BME280;62753;40.394;-80.022;2023-07-20T00:21:05;97430.34;;;34.35;24.51
74334;BME280;62753;40.394;-80.022;2023-07-20T00:23:30;97431.11;;;34.53;24.21
74334;BME280;62753;40.394;-80.022;2023-07-20T00:25:55;97431.94;;;34.28;24.42
74334;BME280;62753;40.394;-80.022;2023-07-20T00:28:21;97428.79;;;34.23;24.31
74334;BME280;62753;40.394;-80.022;2023-07-20T00:30:47;97426.58;;;34.41;24.26
74334;BME280;62753;40.394;-80.022;2023-07-20T00:33:12;97423.00;;;34.34;24.67
74334;BME280;62753;40.394;-80.022;2023-07-20T00:35:37;97420.58;;;34.12;24.99
74334;BME280;62753;40.394;-80.022;2023-07-20T00:38:03;97418.37;;;33.78;25.03
74334;BME280;62753;40.394;-80.022;2023-07-20T00:40:28;97417.45;;;33.12;25.41
74334;BME280;62753;40.394;-80.022;2023-07-20T00:42:53;97417.46;;;33.00;26.36
74334;BME280;62753;40.394;-80.022;2023-07-20T00:45:19;97421.11;;;33.69;25.41
74334;BME280;62753;40.394;-80.022;2023-07-20T00:47:44;97422.49;;;33.49;25.22
74334;BME280;62753;40.394;-80.022;2023-07-20T00:50:10;97421.97;;;33.10;26.14
74334;BME280;62753;40.394;-80.022;2023-07-20T00:52:35;97420.07;;;32.14;27.31
74334;BME280;62753;40.394;-80.022;2023-07-20T00:55:01;97425.99;;;33.47;25.73
74334;BME280;62753;40.394;-80.022;2023-07-20T00:57:28;97428.51;;;32.82;26.12
74334;BME280;62753;40.394;-80.022;2023-07-20T00:59:53;97425.13;;;32.48;26.01
74334;BME280;62753;40.394;-80.022;2023-07-20T01:02:18;97426.43;;;31.71;27.34
74334;BME280;62753;40.394;-80.022;2023-07-20T01:04:43;97431.75;;;32.58;26.34
74334;BME280;62753;40.394;-80.022;2023-07-20T01:07:13;97434.49;;;32.40;26.43
74334;BME280;62753;40.394;-80.022;2023-07-20T01:09:39;97440.16;;;33.26;26.05
74334;BME280;62753;40.394;-80.022;2023-07-20T01:12:04;97440.91;;;32.91;25.58
74334;BME280;62753;40.394;-80.022;2023-07-20T01:14:24;97444.47;;;32.08;26.87
74334;BME280;62753;40.394;-80.022;2023-07-20T01:16:50;97443.62;;;31.64;26.63
74334;BME280;62753;40.394;-80.022;2023-07-20T01:19:15;97440.56;;;32.30;26.07
74334;BME280;62753;40.394;-80.022;2023-07-20T01:21:45;97442.42;;;32.68;25.90
74334;BME280;62753;40.394;-80.022;2023-07-20T01:24:22;97445.05;;;32.29;26.13
74334;BME280;62753;40.394;-80.022;2023-07-20T01:31:23;97449.68;;;32.81;25.72
74334;BME280;62753;40.394;-80.022;2023-07-20T01:33:48;97451.37;;;33.17;25.42
74334;BME280;62753;40.394;-80.022;2023-07-20T01:36:14;97455.38;;;32.94;25.45
74334;BME280;62753;40.394;-80.022;2023-07-20T01:38:39;97454.65;;;32.82;25.30
74334;BME280;62753;40.394;-80.022;2023-07-20T01:41:05;97458.37;;;32.17;26.35
74334;BME280;62753;40.394;-80.022;2023-07-20T01:43:30;97461.21;;;32.13;26.08
74334;BME280;62753;40.394;-80.022;2023-07-20T01:45:55;97462.10;;;31.41;26.82
74334;BME280;62753;40.394;-80.022;2023-07-20T01:48:20;97466.61;;;31.45;26.85
74334;BME280;62753;40.394;-80.022;2023-07-20T01:50:46;97465.03;;;31.73;27.00
74334;BME280;62753;40.394;-80.022;2023-07-20T01:53:11;97464.39;;;31.59;26.96
74334;BME280;62753;40.394;-80.022;2023-07-20T01:55:37;97468.27;;;31.50;27.38
74334;BME280;62753;40.394;-80.022;2023-07-20T01:58:03;97467.05;;;31.56;27.19
74334;BME280;62753;40.394;-80.022;2023-07-20T02:00:28;97470.37;;;31.26;27.61
74334;BME280;62753;40.394;-80.022;2023-07-20T02:02:53;97470.66;;;30.95;27.78
74334;BME280;62753;40.394;-80.022;2023-07-20T02:05:19;97470.06;;;31.60;27.64
74334;BME280;62753;40.394;-80.022;2023-07-20T02:07:45;97479.44;;;32.18;26.40
74334;BME280;62753;40.394;-80.022;2023-07-20T02:10:10;97490.24;;;31.69;26.60
74334;BME280;62753;40.394;-80.022;2023-07-20T02:12:35;97492.92;;;31.91;26.16
74334;BME280;62753;40.394;-80.022;2023-07-20T02:15:03;97487.40;;;32.18;24.88
74334;BME280;62753;40.394;-80.022;2023-07-20T02:17:26;97488.80;;;32.71;24.48
74334;BME280;62753;40.394;-80.022;2023-07-20T02:19:53;97484.28;;;32.50;24.13
74334;BME280;62753;40.394;-80.022;2023-07-20T02:22:18;97489.32;;;31.83;24.65
74334;BME280;62753;40.394;-80.022;2023-07-20T02:24:43;97490.92;;;32.22;24.30
74334;BME280;62753;40.394;-80.022;2023-07-20T02:27:09;97492.66;;;32.57;24.14
74334;BME280;62753;40.394;-80.022;2023-07-20T02:29:34;97492.45;;;33.26;23.69
74334;BME280;62753;40.394;-80.022;2023-07-20T02:32:00;97495.17;;;33.49;22.95
74334;BME280;62753;40.394;-80.022;2023-07-20T02:34:25;97492.90;;;32.97;23.39
74334;BME280;62753;40.394;-80.022;2023-07-20T02:36:51;97496.48;;;32.63;24.25
74334;BME280;62753;40.394;-80.022;2023-07-20T02:39:17;97498.18;;;33.10;23.09
74334;BME280;62753;40.394;-80.022;2023-07-20T02:41:42;97499.72;;;32.58;23.44
74334;BME280;62753;40.394;-80.022;2023-07-20T02:44:07;97502.15;;;31.98;24.51
74334;BME280;62753;40.394;-80.022;2023-07-20T02:46:34;97500.66;;;31.68;23.71
74334;BME280;62753;40.394;-80.022;2023-07-20T02:48:59;97508.03;;;31.56;24.30
74334;BME280;62753;40.394;-80.022;2023-07-20T02:51:24;97510.03;;;31.43;24.67
74334;BME280;62753;40.394;-80.022;2023-07-20T02:53:49;97514.98;;;31.84;24.44
74334;BME280;62753;40.394;-80.022;2023-07-20T02:56:15;97517.65;;;31.62;24.54
74334;BME280;62753;40.394;-80.022;2023-07-20T02:58:42;97512.91;;;31.99;24.16
74334;BME280;62753;40.394;-80.022;2023-07-20T03:01:07;97516.91;;;32.15;24.23
74334;BME280;62753;40.394;-80.022;2023-07-20T03:03:32;97521.50;;;31.51;24.51
74334;BME280;62753;40.394;-80.022;2023-07-20T03:05:57;97527.07;;;31.74;24.71
74334;BME280;62753;40.394;-80.022;2023-07-20T03:08:22;97527.07;;;32.27;24.24
74334;BME280;62753;40.394;-80.022;2023-07-20T03:10:48;97523.19;;;32.57;23.74
74334;BME280;62753;40.394;-80.022;2023-07-20T03:13:13;97524.64;;;30.95;24.95
74334;BME280;62753;40.394;-80.022;2023-07-20T03:15:39;97529.34;;;32.15;24.00
74334;BME280;62753;40.394;-80.022;2023-07-20T03:18:04;97530.52;;;31.76;24.34
74334;BME280;62753;40.394;-80.022;2023-07-20T03:20:31;97529.67;;;31.53;24.39
74334;BME280;62753;40.394;-80.022;2023-07-20T03:22:55;97530.76;;;31.60;24.77
74334;BME280;62753;40.394;-80.022;2023-07-20T03:25:21;97528.18;;;31.64;24.60
74334;BME280;62753;40.394;-80.022;2023-07-20T03:27:47;97529.25;;;32.11;24.21
74334;BME280;62753;40.394;-80.022;2023-07-20T03:30:12;97529.20;;;31.97;24.06
74334;BME280;62753;40.394;-80.022;2023-07-20T03:32:37;97529.17;;;33.58;22.66
74334;BME280;62753;40.394;-80.022;2023-07-20T03:35:04;97534.26;;;33.39;23.20
74334;BME280;62753;40.394;-80.022;2023-07-20T03:37:28;97529.55;;;33.22;23.23
74334;BME280;62753;40.394;-80.022;2023-07-20T03:39:54;97529.20;;;33.01;23.35
74334;BME280;62753;40.394;-80.022;2023-07-20T03:42:19;97534.18;;;32.47;23.72
74334;BME280;62753;40.394;-80.022;2023-07-20T03:44:45;97534.91;;;32.14;23.94
74334;BME280;62753;40.394;-80.022;2023-07-20T03:47:10;97528.82;;;32.23;24.21
74334;BME280;62753;40.394;-80.022;2023-07-20T03:49:35;97517.76;;;32.73;23.51
74334;BME280;62753;40.394;-80.022;2023-07-20T03:52:01;97508.75;;;32.57;23.58
74334;BME280;62753;40.394;-80.022;2023-07-20T03:54:27;97500.29;;;32.65;23.63
74334;BME280;62753;40.394;-80.022;2023-07-20T03:56:53;97502.98;;;32.34;24.09
74334;BME280;62753;40.394;-80.022;2023-07-20T03:59:17;97497.59;;;31.85;24.31
74334;BME280;62753;40.394;-80.022;2023-07-20T04:01:43;97497.65;;;31.97;24.68
74334;BME280;62753;40.394;-80.022;2023-07-20T04:04:09;97505.95;;;31.74;25.34
74334;BME280;62753;40.394;-80.022;2023-07-20T04:06:35;97514.46;;;32.08;25.04
74334;BME280;62753;40.394;-80.022;2023-07-20T04:09:01;97518.91;;;32.15;24.92
74334;BME280;62753;40.394;-80.022;2023-07-20T04:11:25;97517.52;;;31.29;25.98
74334;BME280;62753;40.394;-80.022;2023-07-20T04:13:51;97521.40;;;31.86;25.68
74334;BME280;62753;40.394;-80.022;2023-07-20T04:16:17;97530.43;;;31.94;25.31
74334;BME280;62753;40.394;-80.022;2023-07-20T04:18:42;97539.71;;;31.88;24.60
74334;BME280;62753;40.394;-80.022;2023-07-20T04:21:08;97538.77;;;31.05;25.84
74334;BME280;62753;40.394;-80.022;2023-07-20T04:23:32;97543.62;;;31.51;25.52
74334;BME280;62753;40.394;-80.022;2023-07-20T04:25:58;97548.16;;;31.18;25.96
74334;BME280;62753;40.394;-80.022;2023-07-20T04:28:23;97547.14;;;31.11;26.29
74334;BME280;62753;40.394;-80.022;2023-07-20T04:30:50;97544.85;;;30.99;26.38
74334;BME280;62753;40.394;-80.022;2023-07-20T04:33:15;97541.60;;;31.70;25.72
74334;BME280;62753;40.394;-80.022;2023-07-20T04:35:47;97538.86;;;31.63;25.84
74334;BME280;62753;40.394;-80.022;2023-07-20T04:38:06;97537.22;;;31.63;26.02
74334;BME280;62753;40.394;-80.022;2023-07-20T04:40:31;97536.12;;;31.77;26.01
74334;BME280;62753;40.394;-80.022;2023-07-20T04:42:56;97532.30;;;31.46;26.43
74334;BME280;62753;40.394;-80.022;2023-07-20T04:45:22;97535.35;;;32.24;25.78
74334;BME280;62753;40.394;-80.022;2023-07-20T04:47:47;97531.78;;;31.73;26.12
74334;BME280;62753;40.394;-80.022;2023-07-20T04:50:12;97524.50;;;30.78;26.83
74334;BME280;62753;40.394;-80.022;2023-07-20T04:52:38;97523.34;;;31.19;26.64
74334;BME280;62753;40.394;-80.022;2023-07-20T04:55:05;97523.08;;;31.46;26.86
74334;BME280;62753;40.394;-80.022;2023-07-20T04:57:29;97520.23;;;31.40;27.02
74334;BME280;62753;40.394;-80.022;2023-07-20T04:59:54;97513.86;;;31.12;27.90
74334;BME280;62753;40.394;-80.022;2023-07-20T05:02:20;97507.47;;;31.06;28.74
74334;BME280;62753;40.394;-80.022;2023-07-20T05:04:45;97512.15;;;30.42;29.85
74334;BME280;62753;40.394;-80.022;2023-07-20T05:07:10;97512.49;;;29.97;30.06
74334;BME280;62753;40.394;-80.022;2023-07-20T05:09:36;97512.00;;;30.69;29.26
74334;BME280;62753;40.394;-80.022;2023-07-20T05:12:01;97505.05;;;31.11;28.59
74334;BME280;62753;40.394;-80.022;2023-07-20T05:14:26;97513.85;;;30.70;29.11
74334;BME280;62753;40.394;-80.022;2023-07-20T05:16:52;97517.47;;;30.07;29.00
74334;BME280;62753;40.394;-80.022;2023-07-20T05:19:18;97516.32;;;30.49;27.88
74334;BME280;62753;40.394;-80.022;2023-07-20T05:21:42;97514.84;;;30.53;28.62
74334;BME280;62753;40.394;-80.022;2023-07-20T05:24:08;97512.42;;;30.45;28.72
74334;BME280;62753;40.394;-80.022;2023-07-20T05:26:32;97512.15;;;29.96;28.98
74334;BME280;62753;40.394;-80.022;2023-07-20T05:28:58;97504.74;;;29.19;30.40
74334;BME280;62753;40.394;-80.022;2023-07-20T05:31:23;97507.90;;;28.28;31.37
74334;BME280;62753;40.394;-80.022;2023-07-20T05:33:48;97516.55;;;28.70;30.41
74334;BME280;62753;40.394;-80.022;2023-07-20T05:36:13;97520.28;;;28.94;29.83
74334;BME280;62753;40.394;-80.022;2023-07-20T05:38:39;97517.46;;;29.35;29.40
74334;BME280;62753;40.394;-80.022;2023-07-20T05:41:04;97522.49;;;30.25;28.31
74334;BME280;62753;40.394;-80.022;2023-07-20T05:43:30;97519.95;;;29.77;28.21
74334;BME280;62753;40.394;-80.022;2023-07-20T05:45:55;97526.40;;;29.98;28.23
74334;BME280;62753;40.394;-80.022;2023-07-20T05:48:21;97532.24;;;29.90;27.87
74334;BME280;62753;40.394;-80.022;2023-07-20T05:50:46;97530.30;;;29.91;27.93
74334;BME280;62753;40.394;-80.022;2023-07-20T05:53:12;97520.01;;;30.01;27.19
74334;BME280;62753;40.394;-80.022;2023-07-20T05:55:38;97518.62;;;30.25;27.07
74334;BME280;62753;40.394;-80.022;2023-07-20T05:58:03;97518.82;;;31.15;26.26
74334;BME280;62753;40.394;-80.022;2023-07-20T06:00:28;97522.96;;;31.23;26.02
74334;BME280;62753;40.394;-80.022;2023-07-20T06:02:53;97524.27;;;29.99;27.02
74334;BME280;62753;40.394;-80.022;2023-07-20T06:05:18;97524.07;;;30.37;26.61
74334;BME280;62753;40.394;-80.022;2023-07-20T06:07:43;97520.39;;;30.64;26.87
74334;BME280;62753;40.394;-80.022;2023-07-20T06:10:10;97515.96;;;30.57;26.91
74334;BME280;62753;40.394;-80.022;2023-07-20T06:12:34;97512.90;;;30.26;27.33
74334;BME280;62753;40.394;-80.022;2023-07-20T06:15:03;97513.32;;;30.33;27.11
74334;BME280;62753;40.394;-80.022;2023-07-20T06:17:25;97513.68;;;30.46;27.02
74334;BME280;62753;40.394;-80.022;2023-07-20T06:19:50;97512.42;;;30.70;26.88
74334;BME280;62753;40.394;-80.022;2023-07-20T06:22:16;97511.69;;;30.67;27.20
74334;BME280;62753;40.394;-80.022;2023-07-20T06:24:41;97506.94;;;31.03;26.75
74334;BME280;62753;40.394;-80.022;2023-07-20T06:27:07;97501.94;;;31.14;26.39
74334;BME280;62753;40.394;-80.022;2023-07-20T06:29:33;97501.69;;;30.32;27.10
74334;BME280;62753;40.394;-80.022;2023-07-20T06:31:58;97494.01;;;30.32;26.93
74334;BME280;62753;40.394;-80.022;2023-07-20T06:34:24;97482.50;;;30.92;26.58
74334;BME280;62753;40.394;-80.022;2023-07-20T06:36:50;97482.94;;;30.71;26.75
74334;BME280;62753;40.394;-80.022;2023-07-20T06:39:15;97489.55;;;29.95;27.68
74334;BME280;62753;40.394;-80.022;2023-07-20T06:41:40;97488.57;;;30.51;27.29
74334;BME280;62753;40.394;-80.022;2023-07-20T06:44:06;97481.01;;;30.57;26.97
74334;BME280;62753;40.394;-80.022;2023-07-20T06:46:31;97480.02;;;31.07;26.73
74334;BME280;62753;40.394;-80.022;2023-07-20T06:48:56;97481.14;;;30.69;27.38
74334;BME280;62753;40.394;-80.022;2023-07-20T06:51:22;97483.63;;;30.60;27.91
74334;BME280;62753;40.394;-80.022;2023-07-20T06:53:48;97475.43;;;30.17;28.35
74334;BME280;62753;40.394;-80.022;2023-07-20T06:56:14;97470.00;;;30.42;28.19
74334;BME280;62753;40.394;-80.022;2023-07-20T06:58:39;97460.82;;;30.71;28.00
74334;BME280;62753;40.394;-80.022;2023-07-20T07:01:05;97465.62;;;30.69;28.27
74334;BME280;62753;40.394;-80.022;2023-07-20T07:03:29;97463.02;;;30.18;28.42
74334;BME280;62753;40.394;-80.022;2023-07-20T07:05:55;97461.88;;;30.65;28.62
74334;BME280;62753;40.394;-80.022;2023-07-20T07:08:20;97457.61;;;29.70;29.21
74334;BME280;62753;40.394;-80.022;2023-07-20T07:10:45;97458.20;;;30.33;29.09
74334;BME280;62753;40.394;-80.022;2023-07-20T07:13:11;97452.22;;;30.33;29.32
74334;BME280;62753;40.394;-80.022;2023-07-20T07:15:36;97447.95;;;29.54;29.77
74334;BME280;62753;40.394;-80.022;2023-07-20T07:18:01;97444.42;;;29.67;29.51
74334;BME280;62753;40.394;-80.022;2023-07-20T07:20:27;97440.28;;;29.83;29.89
74334;BME280;62753;40.394;-80.022;2023-07-20T07:22:52;97436.00;;;29.60;30.28
74334;BME280;62753;40.394;-80.022;2023-07-20T07:25:17;97437.17;;;29.56;30.72
74334;BME280;62753;40.394;-80.022;2023-07-20T07:27:42;97437.73;;;29.58;30.38
74334;BME280;62753;40.394;-80.022;2023-07-20T07:30:08;97435.30;;;29.56;30.64
74334;BME280;62753;40.394;-80.022;2023-07-20T07:32:34;97436.02;;;29.23;30.74
74334;BME280;62753;40.394;-80.022;2023-07-20T07:34:59;97433.11;;;29.37;30.75
74334;BME280;62753;40.394;-80.022;2023-07-20T07:37:24;97431.10;;;29.88;30.47
74334;BME280;62753;40.394;-80.022;2023-07-20T07:39:50;97430.35;;;29.39;31.67
74334;BME280;62753;40.394;-80.022;2023-07-20T07:42:15;97433.40;;;28.93;32.02
74334;BME280;62753;40.394;-80.022;2023-07-20T07:44:41;97438.61;;;29.21;32.14
74334;BME280;62753;40.394;-80.022;2023-07-20T07:47:07;97435.56;;;28.47;33.34
74334;BME280;62753;40.394;-80.022;2023-07-20T07:49:31;97437.13;;;28.68;33.56
74334;BME280;62753;40.394;-80.022;2023-07-20T07:51:57;97441.23;;;28.39;33.31
74334;BME280;62753;40.394;-80.022;2023-07-20T07:54:22;97443.06;;;28.04;34.11
74334;BME280;62753;40.394;-80.022;2023-07-20T07:56:49;97445.11;;;29.03;32.47
74334;BME280;62753;40.394;-80.022;2023-07-20T07:59:13;97448.11;;;29.41;32.65
74334;BME280;62753;40.394;-80.022;2023-07-20T08:01:39;97449.70;;;28.84;32.72
74334;BME280;62753;40.394;-80.022;2023-07-20T08:04:05;97459.98;;;29.50;32.17
74334;BME280;62753;40.394;-80.022;2023-07-20T08:06:30;97463.90;;;29.29;32.22
74334;BME280;62753;40.394;-80.022;2023-07-20T08:08:55;97466.21;;;29.38;32.19
74334;BME280;62753;40.394;-80.022;2023-07-20T08:11:21;97467.70;;;29.22;31.87
74334;BME280;62753;40.394;-80.022;2023-07-20T08:13:46;97459.81;;;27.68;33.59
74334;BME280;62753;40.394;-80.022;2023-07-20T08:16:12;97460.24;;;27.97;33.58
74334;BME280;62753;40.394;-80.022;2023-07-20T08:18:38;97458.11;;;29.16;32.41
74334;BME280;62753;40.394;-80.022;2023-07-20T08:21:03;97457.53;;;28.95;32.10
74334;BME280;62753;40.394;-80.022;2023-07-20T08:23:29;97452.41;;;29.19;32.72
74334;BME280;62753;40.394;-80.022;2023-07-20T08:25:54;97453.79;;;28.88;32.92
74334;BME280;62753;40.394;-80.022;2023-07-20T08:28:19;97453.64;;;28.44;33.49
74334;BME280;62753;40.394;-80.022;2023-07-20T08:30:46;97451.82;;;28.51;33.10
74334;BME280;62753;40.394;-80.022;2023-07-20T08:33:12;97450.16;;;28.84;33.24
74334;BME280;62753;40.394;-80.022;2023-07-20T08:35:36;97452.81;;;28.17;34.73
74334;BME280;62753;40.394;-80.022;2023-07-20T08:38:02;97447.97;;;27.64;35.60
74334;BME280;62753;40.394;-80.022;2023-07-20T08:40:28;97449.66;;;27.82;35.78
74334;BME280;62753;40.394;-80.022;2023-07-20T08:42:54;97456.49;;;29.36;33.69
74334;BME280;62753;40.394;-80.022;2023-07-20T08:45:20;97455.32;;;29.08;34.71
74334;BME280;62753;40.394;-80.022;2023-07-20T08:47:45;97452.32;;;29.17;33.59
74334;BME280;62753;40.394;-80.022;2023-07-20T08:50:11;97446.57;;;28.87;34.72
74334;BME280;62753;40.394;-80.022;2023-07-20T08:52:35;97447.38;;;28.57;35.17
74334;BME280;62753;40.394;-80.022;2023-07-20T08:55:01;97442.82;;;28.57;35.19
74334;BME280;62753;40.394;-80.022;2023-07-20T08:57:26;97440.97;;;28.56;35.09
74334;BME280;62753;40.394;-80.022;2023-07-20T08:59:53;97441.60;;;28.81;34.62
74334;BME280;62753;40.394;-80.022;2023-07-20T09:02:18;97443.21;;;29.32;34.20
74334;BME280;62753;40.394;-80.022;2023-07-20T09:04:42;97437.70;;;28.64;34.86
74334;BME280;62753;40.394;-80.022;2023-07-20T09:07:07;97440.81;;;28.45;35.45
74334;BME280;62753;40.394;-80.022;2023-07-20T09:09:33;97440.26;;;28.42;35.32
74334;BME280;62753;40.394;-80.022;2023-07-20T09:11:59;97440.30;;;28.28;35.26
74334;BME280;62753;40.394;-80.022;2023-07-20T09:14:24;97444.21;;;28.90;35.17
74334;BME280;62753;40.394;-80.022;2023-07-20T09:16:50;97449.68;;;28.41;35.27
74334;BME280;62753;40.394;-80.022;2023-07-20T09:19:15;97451.17;;;28.62;34.59
74334;BME280;62753;40.394;-80.022;2023-07-20T09:21:40;97447.22;;;28.94;34.49
74334;BME280;62753;40.394;-80.022;2023-07-20T09:24:07;97452.82;;;28.63;34.96
74334;BME280;62753;40.394;-80.022;2023-07-20T09:26:40;97457.72;;;28.70;34.98
74334;BME280;62753;40.394;-80.022;2023-07-20T09:28:57;97459.13;;;28.82;34.20
74334;BME280;62753;40.394;-80.022;2023-07-20T09:31:22;97459.22;;;28.92;33.99
74334;BME280;62753;40.394;-80.022;2023-07-20T09:33:49;97464.09;;;28.73;34.03
74334;BME280;62753;40.394;-80.022;2023-07-20T09:36:13;97461.13;;;29.03;33.82
74334;BME280;62753;40.394;-80.022;2023-07-20T09:38:38;97462.41;;;28.82;33.95
74334;BME280;62753;40.394;-80.022;2023-07-20T09:41:05;97458.54;;;28.82;34.27
74334;BME280;62753;40.394;-80.022;2023-07-20T09:43:29;97460.68;;;28.40;35.13
74334;BME280;62753;40.394;-80.022;2023-07-20T09:45:58;97457.85;;;28.55;35.11
74334;BME280;62753;40.394;-80.022;2023-07-20T09:48:24;97460.08;;;28.29;35.38
74334;BME280;62753;40.394;-80.022;2023-07-20T09:50:50;97463.48;;;28.03;36.07
74334;BME280;62753;40.394;-80.022;2023-07-20T09:53:12;97461.68;;;27.95;37.97
74334;BME280;62753;40.394;-80.022;2023-07-20T09:55:37;97462.11;;;28.01;37.98
74334;BME280;62753;40.394;-80.022;2023-07-20T09:58:02;97460.74;;;28.44;37.89
74334;BME280;62753;40.394;-80.022;2023-07-20T10:00:27;97456.44;;;28.47;37.69
74334;BME280;62753;40.394;-80.022;2023-07-20T10:02:54;97458.34;;;29.00;35.71
74334;BME280;62753;40.394;-80.022;2023-07-20T10:05:18;97461.36;;;29.38;35.28
74334;BME280;62753;40.394;-80.022;2023-07-20T10:07:46;97462.56;;;29.66;35.18
74334;BME280;62753;40.394;-80.022;2023-07-20T10:10:10;97459.64;;;29.03;36.14
74334;BME280;62753;40.394;-80.022;2023-07-20T10:12:35;97460.40;;;28.77;38.09
74334;BME280;62753;40.394;-80.022;2023-07-20T10:15:08;97460.77;;;29.06;38.89
74334;BME280;62753;40.394;-80.022;2023-07-20T10:17:26;97465.82;;;29.10;38.61
74334;BME280;62753;40.394;-80.022;2023-07-20T10:19:54;97468.88;;;29.28;39.17
74334;BME280;62753;40.394;-80.022;2023-07-20T10:22:19;97466.41;;;27.72;42.38
74334;BME280;62753;40.394;-80.022;2023-07-20T10:24:45;97470.48;;;29.34;39.82
74334;BME280;62753;40.394;-80.022;2023-07-20T10:27:07;97475.81;;;28.32;41.78
74334;BME280;62753;40.394;-80.022;2023-07-20T10:29:32;97473.15;;;26.79;43.90
74334;BME280;62753;40.394;-80.022;2023-07-20T10:31:58;97471.80;;;27.21;44.17
74334;BME280;62753;40.394;-80.022;2023-07-20T10:34:23;97472.50;;;27.91;42.50
74334;BME280;62753;40.394;-80.022;2023-07-20T10:36:49;97473.42;;;27.89;43.00
74334;BME280;62753;40.394;-80.022;2023-07-20T10:39:22;97471.51;;;27.34;43.89
74334;BME280;62753;40.394;-80.022;2023-07-20T10:41:40;97471.09;;;26.41;45.42
74334;BME280;62753;40.394;-80.022;2023-07-20T10:44:06;97473.33;;;25.97;47.00
74334;BME280;62753;40.394;-80.022;2023-07-20T10:46:35;97474.19;;;26.20;46.64
74334;BME280;62753;40.394;-80.022;2023-07-20T10:49:00;97474.81;;;26.04;46.51
74334;BME280;62753;40.394;-80.022;2023-07-20T10:51:22;97474.60;;;27.12;44.96
74334;BME280;62753;40.394;-80.022;2023-07-20T10:53:49;97479.01;;;26.88;45.06
74334;BME280;62753;40.394;-80.022;2023-07-20T10:56:14;97480.76;;;27.20;44.41
74334;BME280;62753;40.394;-80.022;2023-07-20T10:58:37;97476.99;;;27.50;44.19
74334;BME280;62753;40.394;-80.022;2023-07-20T11:01:04;97472.52;;;27.22;44.62
74334;BME280;62753;40.394;-80.022;2023-07-20T11:03:30;97476.62;;;27.77;44.40
74334;BME280;62753;40.394;-80.022;2023-07-20T11:05:53;97475.64;;;27.04;45.44
74334;BME280;62753;40.394;-80.022;2023-07-20T11:10:44;97466.26;;;26.92;45.17
74334;BME280;62753;40.394;-80.022;2023-07-20T11:13:19;97463.81;;;26.78;45.48
74334;BME280;62753;40.394;-80.022;2023-07-20T11:15:45;97461.64;;;26.97;46.21
74334;BME280;62753;40.394;-80.022;2023-07-20T11:18:10;97461.16;;;26.40;47.55
74334;BME280;62753;40.394;-80.022;2023-07-20T11:20:27;97461.62;;;27.26;45.02
74334;BME280;62753;40.394;-80.022;2023-07-20T11:22:52;97462.37;;;26.86;47.01
74334;BME280;62753;40.394;-80.022;2023-07-20T11:25:17;97461.76;;;26.46;47.30
74334;BME280;62753;40.394;-80.022;2023-07-20T11:27:45;97464.28;;;27.12;45.40
74334;BME280;62753;40.394;-80.022;2023-07-20T11:30:15;97467.77;;;27.19;45.83
74334;BME280;62753;40.394;-80.022;2023-07-20T11:32:33;97464.38;;;26.92;45.51
74334;BME280;62753;40.394;-80.022;2023-07-20T11:35:00;97467.92;;;27.23;45.40
74334;BME280;62753;40.394;-80.022;2023-07-20T11:37:24;97466.78;;;27.23;44.72
74334;BME280;62753;40.394;-80.022;2023-07-20T11:39:49;97458.86;;;28.14;43.80
74334;BME280;62753;40.394;-80.022;2023-07-20T11:42:15;97465.55;;;28.07;43.72
74334;BME280;62753;40.394;-80.022;2023-07-20T11:44:40;97469.09;;;28.48;42.86
74334;BME280;62753;40.394;-80.022;2023-07-20T11:47:08;97472.10;;;28.00;43.58
74334;BME280;62753;40.394;-80.022;2023-07-20T11:49:34;97471.20;;;28.18;43.60
74334;BME280;62753;40.394;-80.022;2023-07-20T11:51:58;97471.08;;;28.02;44.19
74334;BME280;62753;40.394;-80.022;2023-07-20T11:54:22;97465.76;;;28.15;43.98
74334;BME280;62753;40.394;-80.022;2023-07-20T11:56:47;97466.15;;;28.88;41.93
74334;BME280;62753;40.394;-80.022;2023-07-20T11:59:13;97463.45;;;29.23;41.83
74334;BME280;62753;40.394;-80.022;2023-07-20T12:01:38;97467.90;;;29.49;40.78
74334;BME280;62753;40.394;-80.022;2023-07-20T12:04:04;97468.89;;;30.03;40.20
74334;BME280;62753;40.394;-80.022;2023-07-20T12:06:28;97464.96;;;29.37;40.86
74334;BME280;62753;40.394;-80.022;2023-07-20T12:08:55;97465.34;;;29.53;40.52
74334;BME280;62753;40.394;-80.022;2023-07-20T12:11:32;97465.64;;;29.31;40.75
74334;BME280;62753;40.394;-80.022;2023-07-20T12:13:44;97467.69;;;29.98;40.75
74334;BME280;62753;40.394;-80.022;2023-07-20T12:16:11;97466.45;;;29.37;40.70
74334;BME280;62753;40.394;-80.022;2023-07-20T12:18:35;97464.15;;;28.89;41.76
74334;BME280;62753;40.394;-80.022;2023-07-20T12:21:01;97462.29;;;29.12;41.88
74334;BME280;62753;40.394;-80.022;2023-07-20T12:23:26;97465.98;;;29.88;40.53
74334;BME280;62753;40.394;-80.022;2023-07-20T12:25:51;97465.81;;;29.38;40.30
74334;BME280;62753;40.394;-80.022;2023-07-20T12:28:18;97466.38;;;29.39;40.91
74334;BME280;62753;40.394;-80.022;2023-07-20T12:30:43;97466.12;;;29.59;41.17
74334;BME280;62753;40.394;-80.022;2023-07-20T12:33:07;97462.21;;;29.69;40.76
74334;BME280;62753;40.394;-80.022;2023-07-20T12:35:33;97462.70;;;29.17;41.06
74334;BME280;62753;40.394;-80.022;2023-07-20T12:37:58;97453.09;;;29.32;42.13